메인 페이지
METAR-TAF:

METAR-TAF

공항 :

시애틀 / 터코마, 워싱턴, 미국

시애틀 터코마 국제공항

위도: 47-26-41N, 경도: 122-18-49W, 고도: 130m

현재 날씨관측

예보는 13분 전, 04:53시(UTC)에 발표되었습니다.
10kt
온도 16°C
습도 45%
기압 1018 hPa
시정: 16.1km
고도 22000ft 상공 구름 많음

METAR: KSEA 250453Z 35010KT 10SM BKN220 16/04 A3006 RMK AO2 SLP185 T01560044

시각: 22:06 (05:06 UTC)

예보

예보는 2 시간 7분 전, 02:59시(UTC)에 발표되었습니다.
예보 대상 시간: 25일 03시부터 26일 06시까지 (UTC)
8kt
시정: 10km
고도 25000ft 상공 구름 보통

TAF: KSEA 250259Z 2503/2606 01008KT P6SM SCT250

4,000개 이상의 공항 관측 자료 및 예보 (METAR 및 TAF 보고).

지도상에서 검색 가능한 기상관측소가 노란 점과 빨간 점으로 표시되어 있습니다.

기상관측소 명을 보려면 표시 위로 마우스를 이동하세요.

날씨 관측과 예보를 보려면 클릭하세요.

지도 변경 : 확대하려면 엑스 표시가 있는 녹색 버튼, 축소하려면 빼기 표시가 있는 녹색 버튼, 다음 페이지의 지도를 보려면 녹색 화살표를 클릭하세요.


METAR-TAF: